Página principal
METAR-TAF:

METAR-TAF

Aeroportos :

Duchambe, Tadjiquistão

latitude: 38-33N, longitude: 068-47E, altura: 803 m

Observação actual do tempo

O boletim foi feito há 21 minutos, às 00:30 UTC
Vento 8 kt de es-nordeste
Temperatura 8°C
Humidade 46%
Pressão 1014 hPa
Visibilidade 10 km ou mais

METAR: UTDD 230030Z 06004MPS 9999 NSC 08/M03 Q1014 R09/D NOSIG RMK QFE693/0923

Hora: 05:51 (00:51 UTC)

Previsão

O boletim foi feito há 51 minutos, às 00:00 UTC
Previsão válida de 23 às 01 UTC a 23 às 13 UTC
Vento 10 kt de es-nordeste
Visibilidade: 3500 m
Poucas nuvensa uma altura de 6600 ft
Nuvens fragmentadasa uma altura de 13000 ft
neblina
Temporariamente
de 23 às 01 UTC a 23 às 05 UTC
Vento 4 kt com direcção variável
Visibilidade: 1500 m
neblina, fumo
Tornando-se
de 23 às 05 UTC a 23 às 06 UTC
Visibilidade: 6000 m
neblina

TAF: UTDD 230000Z 2301/2313 07005MPS 3500 BR FEW066 BKN130 TEMPO 2301/2305 VRB02MPS 1500 BR FU BECMG 2305/2306 6000 BR

Observações e previsões do tempo de mais de 4000 aeroportos (mensagens METAR e TAF).

As estações disponíveis são os pontos amarelos e vermelhos sobre o mapa.

Mova o rato sobre o mapa para ver o nome da estação.

Depois clique no ponto para visualizar as observações e previsões meteorológicas.

Para alterar o mapa : clique nos botões verdes com uma cruz preta para aumentar o zoom; no botão verde com uma pitada de zoom; ou nas setas verdes para mapas adjacentes.


METAR-TAF: